createdAt,value
2019-03-13T00:00:00.411Z,43.23
2019-03-13T00:36:24.047Z,37.98
2019-03-13T00:38:54.340Z,36.53
2019-03-13T00:41:24.681Z,36.85
2019-03-13T00:43:56.009Z,36.13
2019-03-13T00:46:26.306Z,36.60
2019-03-13T00:48:56.599Z,35.40
2019-03-13T00:51:26.883Z,35.13
2019-03-13T00:53:57.858Z,36.90
2019-03-13T00:56:28.235Z,35.83
2019-03-13T00:58:58.594Z,33.83
2019-03-13T01:01:43.514Z,35.43
2019-03-13T01:04:32.253Z,33.30
2019-03-13T01:07:05.283Z,33.28
2019-03-13T01:09:35.635Z,33.90
2019-03-13T01:12:06.602Z,32.50
2019-03-13T01:14:36.882Z,33.18
2019-03-13T01:17:08.106Z,32.45
2019-03-13T01:19:39.477Z,32.70
2019-03-13T01:22:09.827Z,31.85
2019-03-13T01:24:40.062Z,31.82
2019-03-13T01:27:10.363Z,31.02
2019-03-13T01:29:40.635Z,32.48
2019-03-13T01:32:38.831Z,31.62
2019-03-13T01:35:21.727Z,28.70
2019-03-13T01:37:51.987Z,31.33
2019-03-13T01:40:22.279Z,30.32
2019-03-13T01:42:52.713Z,29.67
2019-03-13T01:45:23.105Z,28.83
2019-03-13T01:47:53.391Z,29.05
2019-03-13T01:50:23.656Z,29.23
2019-03-13T01:52:54.008Z,28.20
2019-03-13T01:55:24.296Z,28.55
2019-03-13T01:57:54.541Z,29.37
2019-03-13T02:00:24.840Z,28.55
2019-03-13T02:02:55.176Z,28.50
2019-03-13T02:05:25.596Z,27.98
2019-03-13T02:07:56.846Z,26.45
2019-03-13T02:10:27.097Z,27.32
2019-03-13T02:12:57.527Z,26.97
2019-03-13T02:15:27.766Z,26.37
2019-03-13T02:17:58.144Z,27.62
2019-03-13T02:20:29.703Z,26.12
2019-03-13T02:23:00.100Z,26.20
2019-03-13T02:25:30.386Z,25.92
2019-03-13T02:28:00.601Z,24.72
2019-03-13T02:30:32.169Z,25.35
2019-03-13T02:33:02.468Z,25.62
2019-03-13T02:35:32.855Z,25.02
2019-03-13T02:38:03.185Z,24.87
2019-03-13T02:40:43.839Z,23.87
2019-03-13T02:43:14.202Z,25.25
2019-03-13T02:45:44.499Z,24.20
2019-03-13T02:48:17.097Z,24.70
2019-03-13T02:50:48.886Z,23.85
2019-03-13T02:53:19.175Z,23.80
2019-03-13T02:55:49.537Z,23.55
2019-03-13T02:58:19.907Z,23.15
2019-03-13T03:00:59.146Z,23.22
2019-03-13T03:03:32.384Z,23.10
2019-03-13T03:06:02.742Z,22.93
2019-03-13T03:08:33.000Z,22.82
2019-03-13T03:11:03.401Z,22.25
2019-03-13T03:13:33.748Z,21.87
2019-03-13T03:16:04.326Z,20.25
2019-03-13T03:18:34.811Z,20.70
2019-03-13T03:21:05.173Z,21.42
2019-03-13T03:23:35.480Z,20.17
2019-03-13T03:26:05.788Z,22.15
2019-03-13T03:28:36.085Z,21.50
2019-03-13T03:31:06.308Z,20.75
2019-03-13T03:33:35.814Z,20.15
2019-03-13T03:36:06.171Z,20.23
2019-03-13T03:38:36.557Z,20.40
2019-03-13T03:41:06.976Z,20.75
2019-03-13T03:43:40.736Z,19.82
2019-03-13T03:46:09.402Z,21.57
2019-03-13T03:48:39.647Z,20.65
2019-03-13T03:51:09.967Z,18.25
2019-03-13T03:53:40.247Z,18.82
2019-03-13T03:56:10.539Z,17.55
2019-03-13T03:58:40.950Z,18.62
2019-03-13T04:01:11.326Z,20.20
2019-03-13T04:03:41.608Z,23.85
2019-03-13T04:06:11.908Z,25.70
2019-03-13T04:08:42.354Z,33.48
2019-03-13T04:11:12.645Z,47.23
2019-03-13T04:13:44.820Z,49.65
2019-03-13T04:16:15.153Z,68.92
2019-03-13T04:18:45.700Z,53.65
2019-03-13T04:21:16.077Z,51.13
2019-03-13T04:23:46.331Z,51.70
2019-03-13T04:26:16.561Z,47.13
2019-03-13T04:28:46.864Z,47.83
2019-03-13T04:31:17.194Z,46.58
2019-03-13T04:33:47.580Z,44.90
2019-03-13T04:36:17.928Z,44.38
2019-03-13T04:38:48.335Z,43.65
2019-03-13T04:41:18.666Z,43.85
2019-03-13T04:43:48.926Z,42.38
2019-03-13T04:46:19.474Z,43.15
2019-03-13T04:48:49.850Z,41.75
2019-03-13T04:51:22.047Z,42.40
2019-03-13T04:53:52.336Z,39.18
2019-03-13T04:56:23.556Z,41.00
2019-03-13T04:58:55.030Z,39.85
2019-03-13T05:01:26.321Z,39.83
2019-03-13T05:03:57.040Z,39.40
2019-03-13T05:06:29.997Z,38.63
2019-03-13T05:09:09.034Z,37.90
2019-03-13T05:11:39.476Z,36.77
2019-03-13T05:14:09.795Z,38.17
2019-03-13T05:16:40.275Z,36.17
2019-03-13T05:19:10.721Z,37.30
2019-03-13T05:21:41.009Z,37.08
2019-03-13T05:24:11.276Z,35.30
2019-03-13T05:26:41.815Z,36.70
2019-03-13T05:29:12.117Z,35.68
2019-03-13T05:31:42.535Z,34.95
2019-03-13T05:34:14.072Z,35.08
2019-03-13T05:36:44.341Z,33.83
2019-03-13T05:39:14.721Z,34.15
2019-03-13T05:41:45.023Z,33.50
2019-03-13T05:44:15.291Z,33.48
2019-03-13T05:46:46.776Z,32.17
2019-03-13T05:49:17.083Z,31.68
2019-03-13T05:51:47.431Z,32.95
2019-03-13T05:54:17.864Z,32.03
2019-03-13T05:56:48.673Z,31.25
2019-03-13T05:59:19.018Z,30.68
2019-03-13T06:01:49.270Z,31.35
2019-03-13T06:04:19.599Z,30.90
2019-03-13T06:06:50.086Z,30.68
2019-03-13T06:09:20.470Z,29.50
2019-03-13T06:11:51.397Z,29.00
2019-03-13T06:14:21.630Z,29.92
2019-03-13T06:16:51.945Z,29.27
2019-03-13T06:19:22.259Z,29.12
2019-03-13T06:21:53.257Z,27.73
2019-03-13T06:24:23.542Z,28.27
2019-03-13T06:26:53.907Z,26.75
2019-03-13T06:29:24.123Z,27.27
2019-03-13T06:31:54.497Z,26.30
2019-03-13T06:34:24.732Z,27.22
2019-03-13T06:36:55.046Z,26.60
2019-03-13T06:39:25.352Z,26.37
2019-03-13T06:41:55.900Z,27.20
2019-03-13T06:44:26.229Z,25.90
2019-03-13T06:46:56.479Z,26.17
2019-03-13T06:49:26.799Z,25.10
2019-03-13T06:51:57.176Z,25.92
2019-03-13T06:54:27.458Z,25.35
2019-03-13T06:56:57.751Z,24.55
2019-03-13T06:59:45.753Z,24.65
2019-03-13T07:02:38.214Z,24.80
2019-03-13T07:05:30.445Z,23.77
2019-03-13T07:08:12.303Z,25.30
2019-03-13T07:11:07.510Z,24.35
2019-03-13T07:13:45.939Z,25.23
2019-03-13T07:16:47.194Z,30.27
2019-03-13T07:19:47.672Z,28.25
2019-03-13T07:22:38.947Z,26.90
2019-03-13T07:25:27.129Z,29.95
2019-03-13T07:28:14.861Z,30.43
2019-03-13T07:31:04.015Z,28.65
2019-03-13T07:33:49.299Z,26.93
2019-03-13T07:36:37.149Z,25.65
2019-03-13T07:39:26.785Z,24.55
2019-03-13T07:42:13.738Z,25.12
2019-03-13T07:44:52.444Z,24.90
2019-03-13T07:47:43.179Z,22.58
2019-03-13T07:50:35.659Z,28.25
2019-03-13T07:53:28.146Z,24.37
2019-03-13T07:56:20.433Z,26.37
2019-03-13T07:58:59.877Z,25.37
2019-03-13T08:01:36.080Z,26.27
2019-03-13T08:04:28.294Z,25.85
2019-03-13T08:07:20.236Z,25.97
2019-03-13T08:10:25.060Z,25.27
2019-03-13T08:13:06.652Z,26.95
2019-03-13T08:16:01.781Z,25.35
2019-03-13T08:18:45.771Z,27.22
2019-03-13T08:21:33.834Z,24.95
2019-03-13T08:24:22.502Z,26.27
2019-03-13T08:27:11.668Z,28.27
2019-03-13T08:30:06.955Z,29.48
2019-03-13T08:32:55.102Z,31.95
2019-03-13T08:35:40.642Z,29.52
2019-03-13T08:38:19.015Z,29.15
2019-03-13T08:40:58.895Z,29.05
2019-03-13T08:43:55.222Z,28.65
2019-03-13T08:46:53.510Z,30.57
2019-03-13T08:49:31.332Z,29.67
2019-03-13T08:52:18.452Z,30.30
2019-03-13T08:55:00.402Z,32.60
2019-03-13T08:57:40.745Z,34.80
2019-03-13T09:00:33.879Z,30.05
2019-03-13T09:03:16.184Z,32.03
2019-03-13T09:06:20.382Z,30.57
2019-03-13T09:09:16.430Z,25.80
2019-03-13T09:12:05.573Z,23.80
2019-03-13T09:14:57.686Z,23.05
2019-03-13T09:18:05.103Z,23.65
2019-03-13T09:20:57.156Z,22.10
2019-03-13T09:23:38.216Z,23.75
2019-03-13T09:26:33.196Z,25.05
2019-03-13T09:29:35.199Z,25.48
2019-03-13T09:32:14.408Z,26.85
2019-03-13T09:35:09.074Z,29.75
2019-03-13T09:38:13.496Z,31.15
2019-03-13T09:41:03.047Z,26.12
2019-03-13T09:43:52.276Z,27.50
2019-03-13T09:46:41.590Z,27.00
2019-03-13T09:49:31.308Z,27.30
2019-03-13T09:52:08.527Z,22.42
2019-03-13T09:54:47.990Z,20.68
2019-03-13T09:57:35.895Z,22.05
2019-03-13T10:00:26.059Z,21.40
2019-03-13T10:03:05.784Z,23.42
2019-03-13T10:06:04.363Z,23.12
2019-03-13T10:08:52.402Z,22.58
2019-03-13T10:11:28.983Z,26.02
2019-03-13T10:14:36.265Z,26.05
2019-03-13T10:17:12.376Z,27.85
2019-03-13T10:19:53.708Z,27.75
2019-03-13T10:22:31.401Z,29.60
2019-03-13T10:25:20.345Z,30.37
2019-03-13T10:28:02.491Z,30.48
2019-03-13T10:30:51.698Z,31.52
2019-03-13T10:33:47.965Z,31.17
2019-03-13T10:36:31.913Z,31.80
2019-03-13T10:39:27.014Z,30.70
2019-03-13T10:42:11.201Z,30.55
2019-03-13T10:45:00.405Z,31.37
2019-03-13T10:47:41.257Z,32.38
2019-03-13T10:50:30.100Z,34.05
2019-03-13T10:53:14.853Z,31.65
2019-03-13T10:56:01.811Z,31.42
2019-03-13T10:58:43.952Z,29.57
2019-03-13T11:01:39.001Z,27.22
2019-03-13T11:04:18.660Z,26.35
2019-03-13T11:07:07.837Z,26.95
2019-03-13T11:09:59.959Z,25.40
2019-03-13T11:13:07.274Z,25.45
2019-03-13T11:15:51.681Z,23.80
2019-03-13T11:18:35.148Z,24.80
2019-03-13T11:21:24.406Z,25.30
2019-03-13T11:24:02.891Z,26.20
2019-03-13T11:26:51.633Z,24.37
2019-03-13T11:29:44.205Z,25.37
2019-03-13T11:32:33.369Z,27.58
2019-03-13T11:35:25.923Z,27.13
2019-03-13T11:38:05.223Z,27.20
2019-03-13T11:40:55.119Z,26.25
2019-03-13T11:43:43.224Z,25.05
2019-03-13T11:46:30.515Z,24.15
2019-03-13T11:49:18.757Z,23.70
2019-03-13T11:52:06.853Z,22.62
2019-03-13T11:55:08.076Z,21.23
2019-03-13T11:58:03.490Z,18.02
2019-03-13T12:01:07.965Z,18.90
2019-03-13T12:03:54.605Z,15.68
2019-03-13T12:06:34.089Z,4.75
2019-03-13T12:09:19.598Z,4.58
2019-03-13T12:12:08.902Z,5.20
2019-03-13T12:15:04.615Z,6.50
2019-03-13T12:18:12.308Z,6.72
2019-03-13T12:20:52.846Z,7.03
2019-03-13T12:23:31.504Z,9.08
2019-03-13T12:26:23.579Z,8.15
2019-03-13T12:29:06.169Z,10.53
2019-03-13T12:31:42.952Z,9.30
2019-03-13T12:34:32.333Z,13.43
2019-03-13T12:37:16.732Z,21.20
2019-03-13T12:40:06.230Z,16.25
2019-03-13T12:42:45.086Z,18.17
2019-03-13T12:45:36.387Z,19.23
2019-03-13T12:48:17.052Z,21.10
2019-03-13T12:50:52.537Z,21.30
2019-03-13T12:53:34.763Z,20.77
2019-03-13T12:56:36.350Z,23.80
2019-03-13T12:59:24.439Z,23.80
2019-03-13T13:02:11.606Z,24.75
2019-03-13T13:05:03.957Z,26.48
2019-03-13T13:07:49.127Z,26.73
2019-03-13T13:10:50.748Z,27.95
2019-03-13T13:13:42.786Z,30.23
2019-03-13T13:16:32.042Z,35.55
2019-03-13T13:19:02.555Z,38.63
2019-03-13T13:21:33.019Z,20.30
2019-03-13T13:24:03.521Z,29.82
2019-03-13T13:26:33.906Z,34.60
2019-03-13T13:29:04.831Z,35.05
2019-03-13T13:31:33.830Z,35.73
2019-03-13T13:34:04.161Z,36.40
2019-03-13T13:36:34.438Z,35.28
2019-03-13T13:39:05.435Z,36.95
2019-03-13T13:41:37.400Z,36.53
2019-03-13T13:44:07.649Z,37.53
2019-03-13T13:46:40.159Z,38.65
2019-03-13T13:49:10.519Z,41.28
2019-03-13T13:51:40.812Z,43.15
2019-03-13T13:54:12.303Z,39.55
2019-03-13T13:56:42.568Z,38.38
2019-03-13T13:59:13.458Z,39.15
2019-03-13T14:01:43.873Z,37.58
2019-03-13T14:04:14.319Z,35.30
2019-03-13T14:06:44.670Z,35.73
2019-03-13T14:09:15.089Z,34.50
2019-03-13T14:11:45.517Z,34.20
2019-03-13T14:14:15.803Z,33.13
2019-03-13T14:16:46.098Z,33.02
2019-03-13T14:19:16.366Z,33.63
2019-03-13T14:21:46.617Z,31.37
2019-03-13T14:24:17.521Z,31.35
2019-03-13T14:26:49.106Z,31.70
2019-03-13T14:29:19.410Z,31.85
2019-03-13T14:31:50.516Z,32.73
2019-03-13T14:34:21.380Z,29.10
2019-03-13T14:36:52.236Z,28.83
2019-03-13T14:39:23.148Z,28.98
2019-03-13T14:41:53.540Z,27.35
2019-03-13T14:44:23.870Z,25.97
2019-03-13T14:46:54.246Z,24.55
2019-03-13T14:49:24.451Z,26.00
2019-03-13T14:51:54.690Z,23.47
2019-03-13T14:54:24.913Z,24.70
2019-03-13T14:56:55.103Z,28.25
2019-03-13T14:59:25.416Z,29.05
2019-03-13T15:01:55.585Z,31.33
2019-03-13T15:04:25.888Z,29.20
2019-03-13T15:06:56.076Z,30.92
2019-03-13T15:09:26.283Z,30.52
2019-03-13T15:11:56.962Z,30.88
2019-03-13T15:14:27.374Z,31.42
2019-03-13T15:16:57.731Z,33.83
2019-03-13T15:19:28.083Z,32.00
2019-03-13T15:21:58.403Z,33.02
2019-03-13T15:24:28.661Z,33.73
2019-03-13T15:26:59.144Z,33.90
2019-03-13T15:29:29.565Z,31.85
2019-03-13T15:31:59.873Z,33.63
2019-03-13T15:34:30.162Z,38.15
2019-03-13T15:37:00.400Z,65.52
2019-03-13T15:39:30.786Z,59.95
2019-03-13T15:42:01.124Z,58.58
2019-03-13T15:44:31.576Z,57.58
2019-03-13T15:47:01.897Z,59.45
2019-03-13T15:49:32.278Z,57.90
2019-03-13T15:52:02.777Z,59.50
2019-03-13T15:54:33.557Z,53.08
2019-03-13T15:57:03.983Z,53.40
2019-03-13T15:59:34.444Z,52.93
2019-03-13T16:02:04.717Z,27.17
2019-03-13T16:04:35.172Z,11.88
2019-03-13T16:07:05.556Z,15.08
2019-03-13T16:09:35.845Z,11.50
2019-03-13T16:12:09.109Z,11.55
2019-03-13T16:14:39.403Z,13.38
2019-03-13T16:17:09.789Z,15.63
2019-03-13T16:19:40.388Z,14.73
2019-03-13T16:22:12.073Z,14.65
2019-03-13T16:24:42.675Z,15.05
2019-03-13T16:27:12.949Z,14.90
2019-03-13T16:29:43.465Z,14.53
2019-03-13T16:32:15.580Z,14.60
2019-03-13T16:34:48.815Z,14.65
2019-03-13T16:37:19.214Z,14.85
2019-03-13T16:39:50.235Z,13.70
2019-03-13T16:42:20.534Z,14.18
2019-03-13T16:44:50.890Z,13.85
2019-03-13T16:47:21.231Z,15.75
2019-03-13T16:49:51.531Z,17.70
2019-03-13T16:52:22.074Z,18.35
2019-03-13T16:54:52.393Z,17.92
2019-03-13T16:57:22.797Z,16.97
2019-03-13T17:00:00.537Z,14.18
2019-03-13T17:02:25.246Z,14.58
2019-03-13T17:04:55.664Z,14.33
2019-03-13T17:07:26.006Z,14.03
2019-03-13T17:09:56.363Z,15.13
2019-03-13T17:12:26.656Z,14.13
2019-03-13T17:14:57.009Z,14.83
2019-03-13T17:17:27.607Z,14.65
2019-03-13T17:19:57.994Z,15.45
2019-03-13T17:22:28.639Z,13.95
2019-03-13T17:24:59.073Z,14.28
2019-03-13T17:27:29.378Z,15.25
2019-03-13T17:29:59.799Z,15.43
2019-03-13T17:32:30.145Z,15.05
2019-03-13T17:35:01.531Z,13.95
2019-03-13T17:37:31.920Z,14.85
2019-03-13T17:40:03.268Z,14.60
2019-03-13T17:42:34.908Z,13.70
2019-03-13T17:45:07.295Z,14.05
2019-03-13T17:47:39.114Z,15.00
2019-03-13T17:50:11.112Z,15.15
2019-03-13T17:52:41.503Z,17.67
2019-03-13T17:55:12.054Z,19.75
2019-03-13T17:57:42.511Z,20.77
2019-03-13T18:00:21.450Z,21.07
2019-03-13T18:02:51.891Z,21.02
2019-03-13T18:05:22.306Z,22.02
2019-03-13T18:07:53.021Z,21.73
2019-03-13T18:10:23.324Z,22.52
2019-03-13T18:12:53.642Z,23.62
2019-03-13T18:15:24.079Z,23.55
2019-03-13T18:17:54.517Z,23.40
2019-03-13T18:20:25.898Z,23.92
2019-03-13T18:22:56.259Z,24.82
2019-03-13T18:25:26.691Z,25.32
2019-03-13T18:27:56.957Z,25.80
2019-03-13T18:30:27.402Z,26.42
2019-03-13T18:32:57.914Z,25.27
2019-03-13T18:35:28.289Z,26.35
2019-03-13T18:37:58.697Z,25.68
2019-03-13T18:40:28.976Z,25.92
2019-03-13T18:42:59.359Z,25.50
2019-03-13T18:45:29.666Z,23.42
2019-03-13T18:48:00.060Z,24.45
2019-03-13T18:50:30.804Z,23.95
2019-03-13T18:53:01.181Z,23.98
2019-03-13T18:55:31.664Z,23.02
2019-03-13T18:58:00.330Z,24.00
2019-03-13T19:00:28.962Z,23.45
2019-03-13T19:02:59.317Z,22.37
2019-03-13T19:05:29.747Z,23.10
2019-03-13T19:08:00.084Z,22.00
2019-03-13T19:10:30.488Z,22.67
2019-03-13T19:13:00.887Z,21.62
2019-03-13T19:15:31.461Z,21.77
2019-03-13T19:18:07.310Z,20.32
2019-03-13T19:20:37.752Z,21.65
2019-03-13T19:23:08.039Z,21.33
2019-03-13T19:25:38.310Z,20.88
2019-03-13T19:28:08.640Z,20.02
2019-03-13T19:30:40.030Z,19.30
2019-03-13T19:33:10.402Z,20.23
2019-03-13T19:35:40.674Z,18.77
2019-03-13T19:38:11.122Z,18.70
2019-03-13T19:40:41.466Z,19.30
2019-03-13T19:43:11.770Z,18.87
2019-03-13T19:45:42.483Z,18.42
2019-03-13T19:48:14.398Z,18.60
2019-03-13T19:50:44.667Z,19.00
2019-03-13T19:53:15.069Z,19.52
2019-03-13T19:55:47.717Z,21.05
2019-03-13T19:58:18.460Z,22.13
2019-03-13T20:00:48.960Z,22.10
2019-03-13T20:03:19.303Z,21.85
2019-03-13T20:05:49.531Z,23.42
2019-03-13T20:08:19.903Z,29.40
2019-03-13T20:10:52.556Z,31.02
2019-03-13T20:13:22.928Z,32.05
2019-03-13T20:15:53.270Z,34.75
2019-03-13T20:18:23.686Z,34.73
2019-03-13T20:20:54.487Z,34.98
2019-03-13T20:23:24.853Z,30.60
2019-03-13T20:25:55.224Z,26.90
2019-03-13T20:28:25.756Z,28.57
2019-03-13T20:30:56.712Z,29.25
2019-03-13T20:33:27.800Z,26.97
2019-03-13T20:35:59.171Z,27.13
2019-03-13T20:38:30.173Z,28.05
2019-03-13T20:41:01.926Z,28.00
2019-03-13T20:43:33.145Z,27.02
2019-03-13T20:46:06.015Z,29.12
2019-03-13T20:48:39.283Z,26.85
2019-03-13T20:51:11.071Z,26.57
2019-03-13T20:53:42.073Z,27.27
2019-03-13T20:56:13.658Z,32.67
2019-03-13T20:58:45.030Z,47.33
2019-03-13T21:01:17.079Z,47.65
2019-03-13T21:03:48.328Z,53.83
2019-03-13T21:06:19.579Z,53.35
2019-03-13T21:08:50.782Z,52.60
2019-03-13T21:11:22.419Z,52.58
2019-03-13T21:13:53.630Z,51.37
2019-03-13T21:16:24.634Z,57.88
2019-03-13T21:18:55.820Z,65.42
2019-03-13T21:21:26.838Z,81.70
2019-03-13T21:23:57.526Z,93.82
2019-03-13T21:26:28.744Z,94.87
2019-03-13T21:28:59.897Z,95.07
2019-03-13T21:31:35.934Z,97.00
2019-03-13T21:34:07.672Z,91.37
2019-03-13T21:36:38.964Z,92.42
2019-03-13T21:39:11.149Z,88.80
2019-03-13T21:41:42.912Z,85.92
2019-03-13T21:44:14.709Z,84.52
2019-03-13T21:46:50.562Z,85.17
2019-03-13T21:49:21.536Z,103.02
2019-03-13T21:51:53.554Z,118.85
2019-03-13T21:54:24.371Z,123.78
2019-03-13T21:56:54.978Z,121.85
2019-03-13T21:59:25.375Z,120.90
2019-03-13T22:01:59.371Z,117.90
2019-03-13T22:04:32.759Z,101.80
2019-03-13T22:07:03.343Z,102.45
2019-03-13T22:09:33.736Z,106.10
2019-03-13T22:12:05.179Z,105.63
2019-03-13T22:14:38.385Z,100.80
2019-03-13T22:17:07.521Z,99.80
2019-03-13T22:19:37.797Z,97.45
2019-03-13T22:22:08.162Z,96.55
2019-03-13T22:24:38.754Z,96.00
2019-03-13T22:27:09.069Z,98.15
2019-03-13T22:29:39.459Z,100.87
2019-03-13T22:32:09.746Z,98.10
2019-03-13T22:34:40.401Z,96.45
2019-03-13T22:37:11.244Z,95.97
2019-03-13T22:39:41.631Z,94.45
2019-03-13T22:42:11.943Z,98.27
2019-03-13T22:44:42.326Z,92.45
2019-03-13T22:47:13.545Z,92.12
2019-03-13T22:49:43.964Z,92.92
2019-03-13T22:52:14.219Z,92.05
2019-03-13T22:54:44.878Z,92.88
2019-03-13T22:57:15.211Z,90.70
2019-03-13T22:59:45.477Z,89.85
2019-03-13T23:02:15.772Z,89.40
2019-03-13T23:04:46.132Z,88.85
2019-03-13T23:07:16.499Z,87.08
2019-03-13T23:09:46.797Z,91.60
2019-03-13T23:12:17.037Z,87.35
2019-03-13T23:14:47.460Z,86.50
2019-03-13T23:17:17.824Z,86.63
2019-03-13T23:19:48.206Z,86.65
2019-03-13T23:22:18.652Z,85.03
2019-03-13T23:24:48.986Z,87.40
2019-03-13T23:27:19.257Z,83.87
2019-03-13T23:29:49.555Z,83.37
2019-03-13T23:32:19.905Z,83.87
2019-03-13T23:34:50.434Z,83.72
2019-03-13T23:37:20.676Z,83.75
2019-03-13T23:39:50.963Z,81.87
2019-03-13T23:42:21.260Z,81.92
2019-03-13T23:44:54.559Z,78.42
2019-03-13T23:47:23.525Z,81.63
2019-03-13T23:49:53.812Z,79.05
2019-03-13T23:52:25.840Z,78.65
2019-03-13T23:54:56.402Z,75.80
2019-03-13T23:57:26.680Z,79.67
2019-03-13T23:59:56.985Z,75.87
